Cavok V — PB7130 — position and weather

sailwx.info

Track history (hours):
 
Tides and Currents Weather Stations Pressure Air Temp Water Temp Dewpoint Dewpoint Depression Visibility Wind Speed Wind Dir Waves Ship Positions

Cavok V

Last reported at 2018-Jan-20 14:45 UTC. Time now 2018-Jan-21 22:48 UTC.
Position N 50°43' E 007°08'.

Type: Sailing vessel. MMSI: 244690846.

Date/timePositionNaut miles runAvg speedWind from/ knotsBaromVisibWave heightAir tempDewpointWater temp
2018-Jan-20 14:45N 50°43' E 007°08'1 4.5
2018-Jan-20 14:26N 50°44' E 007°07'2 4.0
2018-Jan-20 13:59N 50°46' E 007°05'2 4.1
2018-Jan-20 13:30N 50°47' E 007°02'2 4.2
2018-Jan-20 12:57N 50°49' E 007°01'2 3.8
2018-Jan-20 12:27N 50°50' E 006°59'2 4.1
2018-Jan-20 11:59N 50°52' E 007°01'2 3.2
2018-Jan-20 11:18N 50°54' E 007°02'2 4.4
2018-Jan-20 10:56N 50°54' E 006°60'2 4.2
2018-Jan-20 10:30N 50°55' E 006°58'2 4.2
2018-Jan-20 09:59N 50°58' E 006°59'11 3.6
2018-Jan-20 06:55N 51°07' E 006°51'2 4.1
2018-Jan-20 06:24N 51°10' E 006°51'2 3.5
2018-Jan-20 05:56N 51°09' E 006°49'1 2.7
2018-Jan-20 05:30N 51°09' E 006°48'1 1.8
2018-Jan-20 04:59N 51°10' E 006°48'0 0.0
2018-Jan-20 04:27N 51°10' E 006°48'0 0.0
2018-Jan-20 03:58N 51°10' E 006°48'0 0.0
2018-Jan-20 03:29N 51°10' E 006°48'0 0.0
2018-Jan-20 02:58N 51°10' E 006°48'0 0.0
2018-Jan-20 02:30N 51°10' E 006°48'0 0.0
2018-Jan-20 01:59N 51°10' E 006°48'0 0.0
2018-Jan-20 01:29N 51°10' E 006°48'0 0.0
2018-Jan-20 01:00N 51°10' E 006°48'0 0.0
2018-Jan-20 00:28N 51°10' E 006°48'0 0.0
2018-Jan-19 23:56N 51°10' E 006°48'0 0.0
2018-Jan-19 23:30N 51°10' E 006°48'0 0.0
2018-Jan-19 22:58N 51°10' E 006°48'0 0.0
2018-Jan-19 22:30N 51°10' E 006°48'0 0.0
2018-Jan-19 21:59N 51°10' E 006°48'0 0.1
2018-Jan-19 21:28N 51°10' E 006°48'2 3.7
2018-Jan-19 21:01N 51°11' E 006°45'2 3.6
2018-Jan-19 20:30N 51°12' E 006°44'1 2.4
2018-Jan-19 20:00N 51°14' E 006°45'1 2.5
2018-Jan-19 19:31N 51°15' E 006°46'2 4.6
2018-Jan-19 19:01N 51°16' E 006°43'2 3.8
2018-Jan-19 18:30N 51°18' E 006°43'2 4.2
2018-Jan-19 17:57N 51°20' E 006°43'2 4.7
2018-Jan-19 17:29N 51°21' E 006°40'2 3.2
2018-Jan-19 17:01N 51°22' E 006°41'2 4.7
2018-Jan-19 16:30N 51°23' E 006°44'2 4.6
2018-Jan-19 15:59N 51°26' E 006°43'1 2.8
2018-Jan-19 15:31N 51°27' E 006°44'  
Track history (hours):
 
Tides and Currents Weather Stations Pressure Air Temp Water Temp Dewpoint Dewpoint Depression Visibility Wind Speed Wind Dir Waves Ship Positions

Cavok V

Last reported at 2018-Jan-20 14:45 UTC. Time now 2018-Jan-21 22:48 UTC.
Position N 50°43' E 007°08'.

Type: Sailing vessel. MMSI: 244690846.

Date/timePositionNaut miles runAvg speedWind from/ knotsBaromVisibWave heightAir tempDewpointWater temp
2018-Jan-20 14:45N 50°43' E 007°08'1 4.5
2018-Jan-20 14:26N 50°44' E 007°07'2 4.0
2018-Jan-20 13:59N 50°46' E 007°05'2 4.1
2018-Jan-20 13:30N 50°47' E 007°02'2 4.2
2018-Jan-20 12:57N 50°49' E 007°01'2 3.8
2018-Jan-20 12:27N 50°50' E 006°59'2 4.1
2018-Jan-20 11:59N 50°52' E 007°01'2 3.2
2018-Jan-20 11:18N 50°54' E 007°02'2 4.4
2018-Jan-20 10:56N 50°54' E 006°60'2 4.2
2018-Jan-20 10:30N 50°55' E 006°58'2 4.2
2018-Jan-20 09:59N 50°58' E 006°59'11 3.6
2018-Jan-20 06:55N 51°07' E 006°51'2 4.1
2018-Jan-20 06:24N 51°10' E 006°51'2 3.5
2018-Jan-20 05:56N 51°09' E 006°49'1 2.7
2018-Jan-20 05:30N 51°09' E 006°48'1 1.8
2018-Jan-20 04:59N 51°10' E 006°48'0 0.0
2018-Jan-20 04:27N 51°10' E 006°48'0 0.0
2018-Jan-20 03:58N 51°10' E 006°48'0 0.0
2018-Jan-20 03:29N 51°10' E 006°48'0 0.0
2018-Jan-20 02:58N 51°10' E 006°48'0 0.0
2018-Jan-20 02:30N 51°10' E 006°48'0 0.0
2018-Jan-20 01:59N 51°10' E 006°48'0 0.0
2018-Jan-20 01:29N 51°10' E 006°48'0 0.0
2018-Jan-20 01:00N 51°10' E 006°48'0 0.0
2018-Jan-20 00:28N 51°10' E 006°48'0 0.0
2018-Jan-19 23:56N 51°10' E 006°48'0 0.0
2018-Jan-19 23:30N 51°10' E 006°48'0 0.0
2018-Jan-19 22:58N 51°10' E 006°48'0 0.0
2018-Jan-19 22:30N 51°10' E 006°48'0 0.0
2018-Jan-19 21:59N 51°10' E 006°48'0 0.1
2018-Jan-19 21:28N 51°10' E 006°48'2 3.7
2018-Jan-19 21:01N 51°11' E 006°45'2 3.6
2018-Jan-19 20:30N 51°12' E 006°44'1 2.4
2018-Jan-19 20:00N 51°14' E 006°45'1 2.5
2018-Jan-19 19:31N 51°15' E 006°46'2 4.6
2018-Jan-19 19:01N 51°16' E 006°43'2 3.8
2018-Jan-19 18:30N 51°18' E 006°43'2 4.2
2018-Jan-19 17:57N 51°20' E 006°43'2 4.7
2018-Jan-19 17:29N 51°21' E 006°40'2 3.2
2018-Jan-19 17:01N 51°22' E 006°41'2 4.7
2018-Jan-19 16:30N 51°23' E 006°44'2 4.6
2018-Jan-19 15:59N 51°26' E 006°43'1 2.8
2018-Jan-19 15:31N 51°27' E 006°44'  

Dump ship's entire track history